createdAt,value
2019-03-06T00:02:22.145Z,15.68
2019-03-06T00:04:48.469Z,15.66
2019-03-06T00:07:14.761Z,15.65
2019-03-06T00:09:41.072Z,15.63
2019-03-06T00:12:07.489Z,15.60
2019-03-06T00:14:33.808Z,15.60
2019-03-06T00:17:00.132Z,15.57
2019-03-06T00:19:26.457Z,15.57
2019-03-06T00:21:52.771Z,15.54
2019-03-06T00:24:19.087Z,15.56
2019-03-06T00:26:45.393Z,15.56
2019-03-06T00:29:11.719Z,15.56
2019-03-06T00:31:38.032Z,15.56
2019-03-06T00:34:04.353Z,15.55
2019-03-06T00:36:30.677Z,15.54
2019-03-06T00:38:57.028Z,15.52
2019-03-06T00:41:23.352Z,15.50
2019-03-06T00:43:49.660Z,15.49
2019-03-06T00:46:15.987Z,15.48
2019-03-06T00:48:42.301Z,15.45
2019-03-06T00:51:08.621Z,15.44
2019-03-06T00:53:34.943Z,15.41
2019-03-06T00:56:01.261Z,15.37
2019-03-06T00:58:27.568Z,15.37
2019-03-06T01:00:53.888Z,15.35
2019-03-06T01:03:20.198Z,15.33
2019-03-06T01:05:46.513Z,15.32
2019-03-06T01:08:12.826Z,15.18
2019-03-06T01:10:39.144Z,15.24
2019-03-06T01:13:05.453Z,15.24
2019-03-06T01:15:31.764Z,15.22
2019-03-06T01:17:58.078Z,15.19
2019-03-06T01:20:24.388Z,15.18
2019-03-06T01:22:50.703Z,15.18
2019-03-06T01:25:17.017Z,15.17
2019-03-06T01:27:43.326Z,15.16
2019-03-06T01:30:09.633Z,15.14
2019-03-06T01:32:35.950Z,15.14
2019-03-06T01:35:02.263Z,15.13
2019-03-06T01:37:28.663Z,15.13
2019-03-06T01:39:54.973Z,15.13
2019-03-06T01:42:21.302Z,15.11
2019-03-06T01:44:47.612Z,15.07
2019-03-06T01:47:13.952Z,15.06
2019-03-06T01:49:40.231Z,15.04
2019-03-06T01:52:06.545Z,15.02
2019-03-06T01:54:32.858Z,14.99
2019-03-06T01:56:59.164Z,14.97
2019-03-06T01:59:25.491Z,14.95
2019-03-06T02:01:51.790Z,14.94
2019-03-06T02:04:18.120Z,14.91
2019-03-06T02:06:44.431Z,14.90
2019-03-06T02:09:10.747Z,14.88
2019-03-06T02:11:37.059Z,14.86
2019-03-06T02:14:03.371Z,14.85
2019-03-06T02:16:29.676Z,14.83
2019-03-06T02:18:55.993Z,14.81
2019-03-06T02:21:22.338Z,14.77
2019-03-06T02:23:48.655Z,14.77
2019-03-06T02:26:14.957Z,14.75
2019-03-06T02:28:41.266Z,14.74
2019-03-06T02:31:07.571Z,14.73
2019-03-06T02:33:33.883Z,14.70
2019-03-06T02:36:00.186Z,14.67
2019-03-06T02:38:26.507Z,14.65
2019-03-06T02:40:52.821Z,14.64
2019-03-06T02:43:19.129Z,14.64
2019-03-06T02:45:45.436Z,14.63
2019-03-06T02:48:11.748Z,14.62
2019-03-06T02:50:38.053Z,14.62
2019-03-06T02:53:04.364Z,14.61
2019-03-06T02:55:30.676Z,14.58
2019-03-06T02:57:56.984Z,14.57
2019-03-06T03:00:23.312Z,14.55
2019-03-06T03:02:49.620Z,14.51
2019-03-06T03:05:15.925Z,14.53
2019-03-06T03:07:42.253Z,14.53
2019-03-06T03:10:08.572Z,14.51
2019-03-06T03:12:34.871Z,14.51
2019-03-06T03:15:01.187Z,14.51
2019-03-06T03:17:27.502Z,14.49
2019-03-06T03:19:53.814Z,14.48
2019-03-06T03:22:20.160Z,14.49
2019-03-06T03:24:46.456Z,14.48
2019-03-06T03:27:12.754Z,14.47
2019-03-06T03:29:39.077Z,14.47
2019-03-06T03:32:05.407Z,14.47
2019-03-06T03:34:31.703Z,14.47
2019-03-06T03:36:58.005Z,14.45
2019-03-06T03:39:24.312Z,14.45
2019-03-06T03:41:50.621Z,14.44
2019-03-06T03:44:16.961Z,14.45
2019-03-06T03:46:43.273Z,14.45
2019-03-06T03:49:09.573Z,14.43
2019-03-06T03:51:35.921Z,14.43
2019-03-06T03:54:02.267Z,14.43
2019-03-06T03:56:28.573Z,14.42
2019-03-06T03:58:54.885Z,14.40
2019-03-06T04:01:21.185Z,14.41
2019-03-06T04:03:47.509Z,14.40
2019-03-06T04:06:13.827Z,14.35
2019-03-06T04:08:40.130Z,14.36
2019-03-06T04:11:06.443Z,14.33
2019-03-06T04:13:32.752Z,14.32
2019-03-06T04:15:59.060Z,14.30
2019-03-06T04:18:25.365Z,14.28
2019-03-06T04:20:51.686Z,14.25
2019-03-06T04:23:17.989Z,14.24
2019-03-06T04:25:44.289Z,14.25
2019-03-06T04:28:10.597Z,14.24
2019-03-06T04:30:36.941Z,14.23
2019-03-06T04:33:03.211Z,14.21
2019-03-06T04:35:29.520Z,14.22
2019-03-06T04:37:55.819Z,14.20
2019-03-06T04:40:22.128Z,14.19
2019-03-06T04:42:48.436Z,14.19
2019-03-06T04:45:14.742Z,14.19
2019-03-06T04:47:41.068Z,14.18
2019-03-06T04:50:07.371Z,14.20
2019-03-06T04:52:33.679Z,14.19
2019-03-06T04:54:59.999Z,14.20
2019-03-06T04:57:26.311Z,14.21
2019-03-06T04:59:52.617Z,14.20
2019-03-06T05:02:18.932Z,14.20
2019-03-06T05:04:45.242Z,14.20
2019-03-06T05:07:11.560Z,14.19
2019-03-06T05:09:37.876Z,14.19
2019-03-06T05:12:04.189Z,14.19
2019-03-06T05:14:30.490Z,14.10
2019-03-06T05:16:56.805Z,14.18
2019-03-06T05:19:23.122Z,14.19
2019-03-06T05:21:49.455Z,14.18
2019-03-06T05:24:15.761Z,14.18
2019-03-06T05:26:42.072Z,14.19
2019-03-06T05:29:08.381Z,14.21
2019-03-06T05:31:34.688Z,14.21
2019-03-06T05:34:00.996Z,14.22
2019-03-06T05:36:27.303Z,14.22
2019-03-06T05:38:53.622Z,14.23
2019-03-06T05:41:19.931Z,14.24
2019-03-06T05:43:46.256Z,14.25
2019-03-06T05:46:12.565Z,14.31
2019-03-06T05:48:38.885Z,14.79
2019-03-06T05:51:05.199Z,15.12
2019-03-06T05:53:31.506Z,14.68
2019-03-06T05:55:57.821Z,14.28
2019-03-06T05:58:24.126Z,13.97
2019-03-06T06:00:50.442Z,13.77
2019-03-06T06:03:16.757Z,13.45
2019-03-06T06:05:43.071Z,13.29
2019-03-06T06:08:09.374Z,13.04
2019-03-06T06:10:35.685Z,12.81
2019-03-06T06:13:01.988Z,12.70
2019-03-06T06:15:28.305Z,12.54
2019-03-06T06:17:54.609Z,12.43
2019-03-06T06:20:20.925Z,12.40
2019-03-06T06:22:47.230Z,12.50
2019-03-06T06:25:13.556Z,12.64
2019-03-06T06:27:39.859Z,12.79
2019-03-06T06:30:06.169Z,12.83
2019-03-06T06:32:33.023Z,12.81
2019-03-06T06:34:58.883Z,12.89
2019-03-06T06:37:25.175Z,12.91
2019-03-06T06:39:51.488Z,12.95
2019-03-06T06:42:17.821Z,13.06
2019-03-06T06:44:44.132Z,13.10
2019-03-06T06:47:10.448Z,13.15
2019-03-06T06:49:36.759Z,13.29
2019-03-06T06:52:03.087Z,13.36
2019-03-06T06:54:29.415Z,13.23
2019-03-06T06:56:55.720Z,13.22
2019-03-06T06:59:22.026Z,13.34
2019-03-06T07:01:48.362Z,13.42
2019-03-06T07:04:14.672Z,13.52
2019-03-06T07:06:40.994Z,13.61
2019-03-06T07:09:07.383Z,13.71
2019-03-06T07:11:33.728Z,13.80
2019-03-06T07:14:00.015Z,13.72
2019-03-06T07:16:26.369Z,13.75
2019-03-06T07:18:52.682Z,13.77
2019-03-06T07:21:19.039Z,13.85
2019-03-06T07:23:45.367Z,13.86
2019-03-06T07:26:11.691Z,13.88
2019-03-06T07:28:38.345Z,13.88
2019-03-06T07:31:04.798Z,13.82
2019-03-06T07:33:31.116Z,13.80
2019-03-06T07:35:57.432Z,13.72
2019-03-06T07:38:23.744Z,13.68
2019-03-06T07:40:50.077Z,13.60
2019-03-06T07:43:16.392Z,13.58
2019-03-06T07:45:43.033Z,13.64
2019-03-06T07:48:09.391Z,13.76
2019-03-06T07:50:35.702Z,13.84
2019-03-06T07:53:02.078Z,14.01
2019-03-06T07:55:28.385Z,14.17
2019-03-06T07:57:54.705Z,14.29
2019-03-06T08:00:21.008Z,14.18
2019-03-06T08:02:47.382Z,14.05
2019-03-06T08:05:13.709Z,14.20
2019-03-06T08:07:40.068Z,14.27
2019-03-06T08:10:06.378Z,14.29
2019-03-06T08:12:32.710Z,14.26
2019-03-06T08:14:59.101Z,14.20
2019-03-06T08:17:25.409Z,14.17
2019-03-06T08:19:51.728Z,14.17
2019-03-06T08:22:18.033Z,14.13
2019-03-06T08:24:44.350Z,14.09
2019-03-06T08:27:10.665Z,14.14
2019-03-06T08:29:44.150Z,14.31
2019-03-06T08:32:10.446Z,14.46
2019-03-06T08:34:36.777Z,14.48
2019-03-06T08:37:03.088Z,14.54
2019-03-06T08:39:29.405Z,14.57
2019-03-06T08:41:55.717Z,14.68
2019-03-06T08:44:22.026Z,14.64
2019-03-06T08:46:48.329Z,14.76
2019-03-06T08:49:14.671Z,14.72
2019-03-06T08:51:40.988Z,14.73
2019-03-06T08:54:07.293Z,14.73
2019-03-06T08:56:33.609Z,14.72
2019-03-06T08:58:59.971Z,14.68
2019-03-06T09:01:26.294Z,14.60
2019-03-06T09:03:52.632Z,14.56
2019-03-06T09:06:18.948Z,14.47
2019-03-06T09:08:45.324Z,14.39
2019-03-06T09:11:11.660Z,14.37
2019-03-06T09:13:37.967Z,14.32
2019-03-06T09:16:04.272Z,14.23
2019-03-06T09:18:30.606Z,14.19
2019-03-06T09:20:56.935Z,14.42
2019-03-06T09:23:23.679Z,14.70
2019-03-06T09:25:49.601Z,14.82
2019-03-06T09:31:01.736Z,14.99
2019-03-06T09:33:28.097Z,14.81
2019-03-06T09:35:54.516Z,14.73
2019-03-06T09:38:20.882Z,14.61
2019-03-06T09:40:47.170Z,14.52
2019-03-06T09:43:13.489Z,14.39
2019-03-06T09:45:40.142Z,14.37
2019-03-06T09:48:06.559Z,14.38
2019-03-06T09:50:32.873Z,14.45
2019-03-06T09:52:59.254Z,14.47
2019-03-06T09:55:25.597Z,14.46
2019-03-06T09:57:51.948Z,14.55
2019-03-06T10:00:18.414Z,14.57
2019-03-06T10:02:44.723Z,14.62
2019-03-06T10:05:11.031Z,14.67
2019-03-06T10:07:37.336Z,15.16
2019-03-06T10:10:03.683Z,15.60
2019-03-06T10:12:29.987Z,16.03
2019-03-06T10:14:56.287Z,16.53
2019-03-06T10:17:22.600Z,16.96
2019-03-06T10:19:48.908Z,17.23
2019-03-06T10:22:15.215Z,17.55
2019-03-06T10:24:41.531Z,17.98
2019-03-06T10:27:07.844Z,18.30
2019-03-06T10:29:34.147Z,18.58
2019-03-06T10:32:00.471Z,18.77
2019-03-06T10:34:26.791Z,19.01
2019-03-06T10:36:53.120Z,19.21
2019-03-06T10:39:19.424Z,19.45
2019-03-06T10:41:45.737Z,19.71
2019-03-06T10:44:12.055Z,19.90
2019-03-06T10:46:38.367Z,20.02
2019-03-06T10:49:04.679Z,20.18
2019-03-06T10:51:31.185Z,20.30
2019-03-06T10:53:57.292Z,20.38
2019-03-06T10:56:23.605Z,20.51
2019-03-06T10:58:49.913Z,20.60
2019-03-06T11:01:16.219Z,20.67
2019-03-06T11:03:42.532Z,20.75
2019-03-06T11:06:08.848Z,20.83
2019-03-06T11:08:35.170Z,20.90
2019-03-06T11:11:01.471Z,20.79
2019-03-06T11:13:27.784Z,20.82
2019-03-06T11:15:55.989Z,20.68
2019-03-06T11:18:20.417Z,20.59
2019-03-06T11:20:46.727Z,20.43
2019-03-06T11:23:13.041Z,20.46
2019-03-06T11:25:39.376Z,20.55
2019-03-06T11:28:05.676Z,20.70
2019-03-06T11:30:31.983Z,20.84
2019-03-06T11:32:58.301Z,20.99
2019-03-06T11:35:24.626Z,21.15
2019-03-06T11:37:50.941Z,21.31
2019-03-06T11:40:17.274Z,21.40
2019-03-06T11:42:43.579Z,21.47
2019-03-06T11:45:09.884Z,21.53
2019-03-06T11:47:36.218Z,21.57
2019-03-06T11:50:02.527Z,21.59
2019-03-06T11:52:28.838Z,21.41
2019-03-06T11:54:55.794Z,21.16
2019-03-06T11:57:22.098Z,20.86
2019-03-06T11:59:48.410Z,20.64
2019-03-06T12:02:14.725Z,20.48
2019-03-06T12:04:41.039Z,20.53
2019-03-06T12:07:07.349Z,20.68
2019-03-06T12:09:33.673Z,20.87
2019-03-06T12:11:59.984Z,20.97
2019-03-06T12:14:26.295Z,21.08
2019-03-06T12:16:52.684Z,21.06
2019-03-06T12:19:18.991Z,21.02
2019-03-06T12:21:45.301Z,21.04
2019-03-06T12:24:13.113Z,21.00
2019-03-06T12:26:37.920Z,20.95
2019-03-06T12:29:04.265Z,21.01
2019-03-06T12:31:30.600Z,21.06
2019-03-06T12:33:56.911Z,21.11
2019-03-06T12:36:23.220Z,21.15
2019-03-06T12:38:49.529Z,21.19
2019-03-06T12:41:15.839Z,21.21
2019-03-06T12:43:42.168Z,21.20
2019-03-06T12:46:08.473Z,21.22
2019-03-06T12:48:34.800Z,21.23
2019-03-06T12:51:01.114Z,21.22
2019-03-06T12:53:27.415Z,21.19
2019-03-06T12:55:53.728Z,21.20
2019-03-06T12:58:20.036Z,21.18
2019-03-06T13:00:46.395Z,21.18
2019-03-06T13:03:12.699Z,21.16
2019-03-06T13:05:39.033Z,21.18
2019-03-06T13:08:05.337Z,21.15
2019-03-06T13:10:31.676Z,21.13
2019-03-06T13:12:58.051Z,21.05
2019-03-06T13:15:24.306Z,21.01
2019-03-06T13:17:50.621Z,20.96
2019-03-06T13:20:16.929Z,20.95
2019-03-06T13:22:43.239Z,20.91
2019-03-06T13:25:09.555Z,20.89
2019-03-06T13:27:35.881Z,20.87
2019-03-06T13:30:02.192Z,20.80
2019-03-06T13:32:28.501Z,20.74
2019-03-06T13:34:54.819Z,20.65
2019-03-06T13:37:21.125Z,20.57
2019-03-06T13:39:47.437Z,20.51
2019-03-06T13:42:13.751Z,20.48
2019-03-06T13:44:40.075Z,20.43
2019-03-06T13:47:06.384Z,20.39
2019-03-06T13:49:32.712Z,20.32
2019-03-06T13:51:59.056Z,20.24
2019-03-06T13:54:25.331Z,20.18
2019-03-06T13:56:51.907Z,20.13
2019-03-06T13:59:17.977Z,20.07
2019-03-06T14:01:44.292Z,20.01
2019-03-06T14:04:10.638Z,19.94
2019-03-06T14:06:36.950Z,19.88
2019-03-06T14:09:03.292Z,19.82
2019-03-06T14:11:29.601Z,19.75
2019-03-06T14:13:55.914Z,19.70
2019-03-06T14:16:22.227Z,19.63
2019-03-06T14:18:48.574Z,19.58
2019-03-06T14:21:14.893Z,19.53
2019-03-06T14:23:41.195Z,19.46
2019-03-06T14:26:07.561Z,19.41
2019-03-06T14:28:33.913Z,19.38
2019-03-06T14:31:00.185Z,19.33
2019-03-06T14:33:26.488Z,19.31
2019-03-06T14:35:52.832Z,19.27
2019-03-06T14:38:21.232Z,19.21
2019-03-06T14:40:45.811Z,19.19
2019-03-06T14:43:12.289Z,19.17
2019-03-06T14:45:38.601Z,19.14
2019-03-06T14:48:04.916Z,19.11
2019-03-06T14:50:31.241Z,19.05
2019-03-06T14:52:57.549Z,18.97
2019-03-06T14:55:23.861Z,18.93
2019-03-06T14:57:50.193Z,18.85
2019-03-06T15:00:16.505Z,18.77
2019-03-06T15:02:42.897Z,18.75
2019-03-06T15:05:09.213Z,18.71
2019-03-06T15:07:35.524Z,18.73
2019-03-06T15:10:01.842Z,18.72
2019-03-06T15:12:28.204Z,19.09
2019-03-06T15:14:54.535Z,19.56
2019-03-06T15:17:20.845Z,19.83
2019-03-06T15:19:47.151Z,19.96
2019-03-06T15:22:13.477Z,20.05
2019-03-06T15:24:41.661Z,20.11
2019-03-06T15:27:06.098Z,20.15
2019-03-06T15:29:32.485Z,20.17
2019-03-06T15:31:58.796Z,20.18
2019-03-06T15:34:25.106Z,20.17
2019-03-06T15:36:51.417Z,20.07
2019-03-06T15:39:18.581Z,20.00
2019-03-06T15:41:44.053Z,19.88
2019-03-06T15:44:10.399Z,19.78
2019-03-06T15:46:36.722Z,19.69
2019-03-06T15:49:03.033Z,19.61
2019-03-06T15:51:29.371Z,19.55
2019-03-06T15:53:55.676Z,19.49
2019-03-06T15:56:21.985Z,19.42
2019-03-06T15:58:48.301Z,19.36
2019-03-06T16:01:14.625Z,19.28
2019-03-06T16:03:40.937Z,19.29
2019-03-06T16:06:07.248Z,19.25
2019-03-06T16:08:33.566Z,19.21
2019-03-06T16:10:59.878Z,19.18
2019-03-06T16:13:26.194Z,19.14
2019-03-06T16:15:52.507Z,19.10
2019-03-06T16:18:18.843Z,19.04
2019-03-06T16:20:45.149Z,19.03
2019-03-06T16:23:11.459Z,18.99
2019-03-06T16:25:40.001Z,18.95
2019-03-06T16:28:04.096Z,18.91
2019-03-06T16:30:30.409Z,18.88
2019-03-06T16:32:56.715Z,18.84
2019-03-06T16:35:23.045Z,18.81
2019-03-06T16:37:49.349Z,18.77
2019-03-06T16:40:15.654Z,18.76
2019-03-06T16:42:41.967Z,18.71
2019-03-06T16:45:08.278Z,18.69
2019-03-06T16:47:34.637Z,18.66
2019-03-06T16:50:00.909Z,18.72
2019-03-06T16:52:27.278Z,18.86
2019-03-06T16:54:53.597Z,18.86
2019-03-06T16:57:19.914Z,18.80
2019-03-06T16:59:46.512Z,18.74
2019-03-06T17:02:12.861Z,18.67
2019-03-06T17:04:39.172Z,18.59
2019-03-06T17:07:05.487Z,18.56
2019-03-06T17:09:31.877Z,18.54
2019-03-06T17:11:58.192Z,18.49
2019-03-06T17:14:24.509Z,18.47
2019-03-06T17:16:50.841Z,18.43
2019-03-06T17:19:17.152Z,18.40
2019-03-06T17:21:43.472Z,18.37
2019-03-06T17:24:09.788Z,18.34
2019-03-06T17:26:36.157Z,18.31
2019-03-06T17:29:02.464Z,18.27
2019-03-06T17:31:28.770Z,18.25
2019-03-06T17:33:55.120Z,18.23
2019-03-06T17:36:21.429Z,18.22
2019-03-06T17:38:47.749Z,18.19
2019-03-06T17:41:14.062Z,18.17
2019-03-06T17:43:40.386Z,18.14
2019-03-06T17:46:06.693Z,18.11
2019-03-06T17:48:33.006Z,18.10
2019-03-06T17:51:00.785Z,18.10
2019-03-06T17:53:27.331Z,18.19
2019-03-06T17:55:51.956Z,18.19
2019-03-06T17:58:18.277Z,18.15
2019-03-06T18:00:44.613Z,18.10
2019-03-06T18:03:10.963Z,18.05
2019-03-06T18:05:37.273Z,18.02
2019-03-06T18:08:03.652Z,17.98
2019-03-06T18:10:29.968Z,17.95
2019-03-06T18:12:56.284Z,17.93
2019-03-06T18:15:22.674Z,17.88
2019-03-06T18:17:48.980Z,17.87
2019-03-06T18:20:15.295Z,17.89
2019-03-06T18:22:41.600Z,17.92
2019-03-06T18:25:07.944Z,17.93
2019-03-06T18:27:34.258Z,17.89
2019-03-06T18:30:00.584Z,17.85
2019-03-06T18:32:26.943Z,17.82
2019-03-06T18:34:53.337Z,17.79
2019-03-06T18:37:19.622Z,17.76
2019-03-06T18:39:45.935Z,17.72
2019-03-06T18:42:12.263Z,17.70
2019-03-06T18:44:38.579Z,17.68
2019-03-06T18:47:04.915Z,17.66
2019-03-06T18:49:31.277Z,17.63
2019-03-06T18:51:57.588Z,17.61
2019-03-06T18:54:23.907Z,17.57
2019-03-06T18:56:50.227Z,17.56
2019-03-06T18:59:16.563Z,17.53
2019-03-06T19:01:43.169Z,17.50
2019-03-06T19:04:09.476Z,17.47
2019-03-06T19:06:36.170Z,17.45
2019-03-06T19:09:02.590Z,17.42
2019-03-06T19:11:28.948Z,17.40
2019-03-06T19:13:55.262Z,17.38
2019-03-06T19:16:23.137Z,17.34
2019-03-06T19:18:49.422Z,17.33
2019-03-06T19:21:15.739Z,17.31
2019-03-06T19:23:42.073Z,17.29
2019-03-06T19:26:08.382Z,17.27
2019-03-06T19:28:34.695Z,17.24
2019-03-06T19:31:01.012Z,17.21
2019-03-06T19:33:27.330Z,17.19
2019-03-06T19:35:53.694Z,17.17
2019-03-06T19:38:20.011Z,17.37
2019-03-06T19:40:46.336Z,17.58
2019-03-06T19:43:12.648Z,17.20
2019-03-06T19:45:39.004Z,16.99
2019-03-06T19:48:05.317Z,16.99
2019-03-06T19:50:31.635Z,17.01
2019-03-06T19:52:58.116Z,17.01
2019-03-06T19:55:24.386Z,17.01
2019-03-06T19:57:50.695Z,16.99
2019-03-06T20:00:16.998Z,16.99
2019-03-06T20:02:43.615Z,16.96
2019-03-06T20:05:09.977Z,16.99
2019-03-06T20:07:36.287Z,17.04
2019-03-06T20:10:04.385Z,17.00
2019-03-06T20:12:28.904Z,16.98
2019-03-06T20:14:55.240Z,16.92
2019-03-06T20:17:21.567Z,16.90
2019-03-06T20:19:50.611Z,16.86
2019-03-06T20:22:16.945Z,16.84
2019-03-06T20:24:43.248Z,16.82
2019-03-06T20:27:09.570Z,16.80
2019-03-06T20:29:35.884Z,16.77
2019-03-06T20:32:02.219Z,16.76
2019-03-06T20:34:28.521Z,16.73
2019-03-06T20:36:54.840Z,16.71
2019-03-06T20:39:21.146Z,16.66
2019-03-06T20:41:47.461Z,16.65
2019-03-06T20:44:13.866Z,16.63
2019-03-06T20:46:40.176Z,16.60
2019-03-06T20:49:06.547Z,16.59
2019-03-06T20:51:32.867Z,16.56
2019-03-06T20:53:59.179Z,16.56
2019-03-06T20:56:25.507Z,16.54
2019-03-06T20:58:51.831Z,16.51
2019-03-06T21:01:18.147Z,16.50
2019-03-06T21:03:44.469Z,16.49
2019-03-06T21:06:10.775Z,16.46
2019-03-06T21:08:39.879Z,16.43
2019-03-06T21:11:06.187Z,16.42
2019-03-06T21:13:34.921Z,16.37
2019-03-06T21:15:58.823Z,16.38
2019-03-06T21:18:27.162Z,16.36
2019-03-06T21:20:51.488Z,16.33
2019-03-06T21:23:17.772Z,16.32
2019-03-06T21:25:44.086Z,16.30
2019-03-06T21:28:10.399Z,16.26
2019-03-06T21:30:36.710Z,16.25
2019-03-06T21:33:03.022Z,16.24
2019-03-06T21:35:29.338Z,16.21
2019-03-06T21:37:55.646Z,16.19
2019-03-06T21:40:21.962Z,16.17
2019-03-06T21:42:48.270Z,16.15
2019-03-06T21:45:14.583Z,16.13
2019-03-06T21:47:40.893Z,16.12
2019-03-06T21:50:07.203Z,16.10
2019-03-06T21:52:33.518Z,16.09
2019-03-06T21:54:59.831Z,16.06
2019-03-06T21:57:26.148Z,16.04
2019-03-06T21:59:52.457Z,16.02
2019-03-06T22:02:18.767Z,16.01
2019-03-06T22:04:45.081Z,15.99
2019-03-06T22:07:11.391Z,15.96
2019-03-06T22:09:37.998Z,15.95
2019-03-06T22:12:04.310Z,15.92
2019-03-06T22:14:30.621Z,15.91
2019-03-06T22:17:00.085Z,15.89
2019-03-06T22:19:23.679Z,15.88
2019-03-06T22:21:49.995Z,15.86
2019-03-06T22:24:16.310Z,15.83
2019-03-06T22:26:42.638Z,15.81
2019-03-06T22:29:08.953Z,15.79
2019-03-06T22:31:35.262Z,15.76
2019-03-06T22:34:01.582Z,15.75
2019-03-06T22:36:27.885Z,15.72
2019-03-06T22:38:54.224Z,15.71
2019-03-06T22:41:20.534Z,15.69
2019-03-06T22:43:46.893Z,15.67
2019-03-06T22:46:13.233Z,15.66
2019-03-06T22:48:39.536Z,15.64
2019-03-06T22:51:05.894Z,15.61
2019-03-06T22:53:32.170Z,15.59
2019-03-06T22:55:58.492Z,15.55
2019-03-06T22:58:24.814Z,15.55
2019-03-06T23:00:51.130Z,15.53
2019-03-06T23:03:17.450Z,15.51
2019-03-06T23:05:43.878Z,15.50
2019-03-06T23:08:10.147Z,15.49
2019-03-06T23:10:36.488Z,15.47
2019-03-06T23:13:02.976Z,15.44
2019-03-06T23:15:29.343Z,15.43
2019-03-06T23:17:55.809Z,15.41
2019-03-06T23:20:22.104Z,15.38
2019-03-06T23:22:48.411Z,15.35
2019-03-06T23:25:14.740Z,15.35
2019-03-06T23:27:41.084Z,15.29
2019-03-06T23:30:07.491Z,15.31
2019-03-06T23:32:33.841Z,15.29
2019-03-06T23:35:02.082Z,15.27
2019-03-06T23:37:26.607Z,15.25
2019-03-06T23:39:53.052Z,15.24
2019-03-06T23:42:19.327Z,15.21
2019-03-06T23:44:45.655Z,15.21
2019-03-06T23:47:11.994Z,15.19
2019-03-06T23:49:38.295Z,15.16
2019-03-06T23:52:04.605Z,15.14
2019-03-06T23:54:31.059Z,15.14
2019-03-06T23:56:57.374Z,15.11
2019-03-06T23:59:23.684Z,15.09
